createdAt,value
2019-05-01T00:01:28.257Z,93913.33
2019-05-01T00:06:34.584Z,93915.46
2019-05-01T00:11:39.236Z,93904.64
2019-05-01T00:16:45.304Z,93911.64
2019-05-01T00:21:49.907Z,93912.61
2019-05-01T00:26:55.968Z,93911.78
2019-05-01T00:32:00.674Z,93905.44
2019-05-01T00:37:06.359Z,93907.03
2019-05-01T00:42:12.462Z,93902.75
2019-05-01T00:47:16.974Z,93904.77
2019-05-01T00:52:21.511Z,93910.25
2019-05-01T00:57:27.701Z,93910.52
2019-05-01T01:02:36.774Z,93908.05
2019-05-01T01:07:41.401Z,93900.73
2019-05-01T01:12:46.032Z,93909.84
2019-05-01T01:17:50.615Z,93906.71
2019-05-01T01:22:55.265Z,93913.06
2019-05-01T01:27:59.893Z,93910.68
2019-05-01T01:33:05.599Z,93913.08
2019-05-01T01:38:10.303Z,93916.80
2019-05-01T01:43:34.601Z,93898.27
2019-05-01T01:48:39.379Z,93887.28
2019-05-01T01:53:44.177Z,93883.23
2019-05-01T01:58:48.995Z,93873.85
2019-05-01T02:03:55.272Z,93866.67
2019-05-01T02:08:59.998Z,93860.61
2019-05-01T02:14:04.735Z,93857.03
2019-05-01T02:19:09.374Z,93849.09
2019-05-01T02:24:13.962Z,93847.50
2019-05-01T02:29:23.350Z,93848.05
2019-05-01T02:34:29.283Z,93847.59
2019-05-01T02:39:35.408Z,93850.53
2019-05-01T02:44:48.641Z,93848.31
2019-05-01T02:49:55.860Z,93849.59
2019-05-01T02:55:04.554Z,93855.27
2019-05-01T03:00:09.622Z,93852.57
2019-05-01T03:05:14.428Z,93860.47
2019-05-01T03:10:19.581Z,93854.61
2019-05-01T03:15:25.957Z,93856.05
2019-05-01T03:20:36.067Z,93873.52
2019-05-01T03:25:40.786Z,93873.34
2019-05-01T03:30:45.647Z,93873.06
2019-05-01T03:35:53.222Z,93883.45
2019-05-01T03:40:57.853Z,93887.44
2019-05-01T03:46:02.912Z,93894.53
2019-05-01T03:51:07.760Z,93894.05
2019-05-01T03:56:12.358Z,93896.84
2019-05-01T04:01:35.327Z,93898.85
2019-05-01T04:06:39.958Z,93906.22
2019-05-01T04:11:44.716Z,93906.89
2019-05-01T04:16:51.727Z,93904.36
2019-05-01T04:21:59.807Z,93901.95
2019-05-01T04:27:06.094Z,93901.48
2019-05-01T04:32:12.551Z,93896.56
2019-05-01T04:37:18.840Z,93896.56
2019-05-01T04:42:23.741Z,93891.81
2019-05-01T04:47:28.435Z,93891.66
2019-05-01T04:52:33.270Z,93886.19
2019-05-01T04:57:38.003Z,93898.73
2019-05-01T05:03:04.134Z,93890.95
2019-05-01T05:07:59.782Z,93883.14
2019-05-01T05:13:06.554Z,93889.94
2019-05-01T05:18:11.653Z,93884.12
2019-05-01T05:23:16.876Z,93898.71
2019-05-01T05:28:21.877Z,93898.03
2019-05-01T05:33:29.132Z,93899.89
2019-05-01T05:38:35.980Z,93898.50
2019-05-01T05:43:40.974Z,93906.30
2019-05-01T05:48:45.781Z,93894.80
2019-05-01T05:53:57.899Z,93901.36
2019-05-01T05:59:05.807Z,93909.55
2019-05-01T06:04:22.866Z,93895.30
2019-05-01T06:09:31.972Z,93890.73
2019-05-01T06:14:45.018Z,93891.38
2019-05-01T06:20:07.590Z,93878.48
2019-05-01T06:25:25.790Z,93884.71
2019-05-01T06:30:30.993Z,93891.52
2019-05-01T06:35:38.111Z,93904.69
2019-05-01T06:40:45.442Z,93899.93
2019-05-01T06:45:52.694Z,93894.55
2019-05-01T06:50:59.126Z,93899.98
2019-05-01T06:56:03.774Z,93906.26
2019-05-01T07:01:08.565Z,93913.92
2019-05-01T07:06:14.407Z,93928.58
2019-05-01T07:11:19.433Z,93919.37
2019-05-01T07:16:24.028Z,93926.95
2019-05-01T07:21:32.626Z,93928.05
2019-05-01T07:26:35.143Z,93920.80
2019-05-01T07:31:40.074Z,93925.64
2019-05-01T07:36:45.699Z,93920.94
2019-05-01T07:41:51.245Z,93916.48
2019-05-01T07:46:57.500Z,93920.21
2019-05-01T07:52:02.288Z,93920.53
2019-05-01T07:57:07.081Z,93916.66
2019-05-01T08:02:13.584Z,93910.23
2019-05-01T08:07:18.328Z,93909.55
2019-05-01T08:12:23.990Z,93924.19
2019-05-01T08:17:30.827Z,93922.60
2019-05-01T08:22:38.907Z,93919.59
2019-05-01T08:27:45.287Z,93911.31
2019-05-01T08:32:57.610Z,93906.88
2019-05-01T08:38:02.401Z,93910.42
2019-05-01T08:43:07.140Z,93903.16
2019-05-01T08:48:13.426Z,93903.20
2019-05-01T08:53:22.090Z,93909.09
2019-05-01T08:58:25.759Z,93904.17
2019-05-01T09:03:30.353Z,93891.35
2019-05-01T09:08:34.992Z,93903.97
2019-05-01T09:13:39.503Z,93908.31
2019-05-01T09:18:44.121Z,93915.28
2019-05-01T09:23:51.429Z,93916.61
2019-05-01T09:29:02.499Z,93913.05
2019-05-01T09:34:09.447Z,93908.52
2019-05-01T09:39:15.259Z,93899.62
2019-05-01T09:44:19.891Z,93896.83
2019-05-01T09:49:24.640Z,93893.33
2019-05-01T09:54:33.572Z,93888.87
2019-05-01T09:59:38.193Z,93885.83
2019-05-01T10:04:42.845Z,93889.20
2019-05-01T10:09:52.215Z,93886.48
2019-05-01T10:14:53.858Z,93876.20
2019-05-01T10:19:58.403Z,93880.88
2019-05-01T10:25:03.176Z,93878.97
2019-05-01T10:30:26.748Z,93881.03
2019-05-01T10:35:42.983Z,93858.35
2019-05-01T10:40:45.321Z,93873.72
2019-05-01T10:45:49.938Z,93867.84
2019-05-01T10:50:54.627Z,93864.91
2019-05-01T10:55:59.212Z,93864.41
2019-05-01T11:01:20.361Z,93867.30
2019-05-01T11:06:25.081Z,93865.05
2019-05-01T11:11:29.714Z,93869.27
2019-05-01T11:16:34.380Z,93868.88
2019-05-01T11:21:38.871Z,93864.30
2019-05-01T11:26:43.504Z,93854.67
2019-05-01T11:32:01.761Z,93859.88
2019-05-01T11:37:24.184Z,93851.48
2019-05-01T11:42:29.055Z,93860.30
2019-05-01T11:47:33.685Z,93859.53
2019-05-01T11:52:38.402Z,93870.98
2019-05-01T11:57:43.017Z,93859.98
2019-05-01T12:02:47.763Z,93868.59
2019-05-01T12:07:52.330Z,93858.03
2019-05-01T12:12:56.881Z,93862.91
2019-05-01T12:18:02.490Z,93845.94
2019-05-01T12:23:07.226Z,93852.16
2019-05-01T12:28:11.985Z,93841.72
2019-05-01T12:33:16.581Z,93840.97
2019-05-01T12:38:21.158Z,93839.38
2019-05-01T12:43:26.713Z,93840.17
2019-05-01T12:48:31.316Z,93833.67
2019-05-01T12:53:40.258Z,93835.72
2019-05-01T12:58:44.937Z,93828.63
2019-05-01T13:03:49.564Z,93823.20
2019-05-01T13:08:54.160Z,93817.00
2019-05-01T13:13:58.821Z,93805.05
2019-05-01T13:19:03.384Z,93804.70
2019-05-01T13:24:08.027Z,93816.22
2019-05-01T13:29:17.247Z,93808.67
2019-05-01T13:34:22.089Z,93808.41
2019-05-01T13:39:26.647Z,93809.09
2019-05-01T13:44:38.211Z,93784.07
2019-05-01T13:49:42.890Z,93810.01
2019-05-01T13:54:47.588Z,93812.19
2019-05-01T13:59:52.346Z,93819.30
2019-05-01T14:04:56.905Z,93815.19
2019-05-01T14:10:01.657Z,93826.45
2019-05-01T14:15:10.097Z,93823.27
2019-05-01T14:20:19.066Z,93830.64
2019-05-01T14:25:24.525Z,93824.58
2019-05-01T14:30:29.112Z,93827.23
2019-05-01T14:35:33.756Z,93832.80
2019-05-01T14:40:38.317Z,93840.78
2019-05-01T14:45:42.956Z,93842.06
2019-05-01T14:50:47.591Z,93841.58
2019-05-01T14:55:52.166Z,93841.72
2019-05-01T15:00:56.824Z,93835.80
2019-05-01T15:06:01.437Z,93842.06
2019-05-01T15:11:06.108Z,93835.98
2019-05-01T15:16:12.413Z,93838.27
2019-05-01T15:21:18.033Z,93833.75
2019-05-01T15:26:22.535Z,93837.19
2019-05-01T15:31:27.263Z,93824.91
2019-05-01T15:36:34.695Z,93829.92
2019-05-01T15:41:47.128Z,93825.97
2019-05-01T15:46:51.769Z,93830.03
2019-05-01T15:51:56.483Z,93831.41
2019-05-01T15:57:01.024Z,93824.16
2019-05-01T16:02:05.796Z,93827.01
2019-05-01T16:07:10.410Z,93823.81
2019-05-01T16:12:16.681Z,93823.41
2019-05-01T16:17:21.329Z,93823.26
2019-05-01T16:22:25.996Z,93830.48
2019-05-01T16:27:30.539Z,93830.23
2019-05-01T16:32:35.245Z,93832.83
2019-05-01T16:37:39.962Z,93835.28
2019-05-01T16:42:44.443Z,93840.84
2019-05-01T16:47:49.143Z,93848.59
2019-05-01T16:52:53.852Z,93866.12
2019-05-01T16:57:58.537Z,93862.52
2019-05-01T17:03:04.730Z,93870.94
2019-05-01T17:08:13.797Z,93883.22
2019-05-01T17:13:18.500Z,93890.33
2019-05-01T17:18:23.604Z,93902.20
2019-05-01T17:23:28.256Z,93911.16
2019-05-01T17:28:32.988Z,93915.95
2019-05-01T17:33:37.664Z,93925.39
2019-05-01T17:38:49.205Z,93936.95
2019-05-01T17:43:49.353Z,93939.92
2019-05-01T17:48:57.807Z,93949.66
2019-05-01T17:54:03.862Z,93953.28
2019-05-01T17:59:10.897Z,93957.22
2019-05-01T18:04:17.206Z,93955.07
2019-05-01T18:09:22.320Z,93970.56
2019-05-01T18:14:27.087Z,93971.00
2019-05-01T18:19:31.657Z,93974.30
2019-05-01T18:24:41.003Z,93985.81
2019-05-01T18:29:48.594Z,93982.17
2019-05-01T18:34:53.357Z,93991.27
2019-05-01T18:39:58.433Z,93984.41
2019-05-01T18:45:05.489Z,93997.69
2019-05-01T18:50:10.205Z,93994.09
2019-05-01T18:55:14.800Z,94005.48
2019-05-01T19:00:19.603Z,94010.91
2019-05-01T19:05:24.398Z,94023.61
2019-05-01T19:10:29.261Z,94028.88
2019-05-01T19:15:34.130Z,94040.14
2019-05-01T19:20:39.190Z,94044.55
2019-05-01T19:25:44.179Z,94043.74
2019-05-01T19:30:48.896Z,94049.45
2019-05-01T19:35:53.752Z,94050.38
2019-05-01T19:40:58.543Z,94052.41
2019-05-01T19:46:03.249Z,94060.52
2019-05-01T19:51:08.073Z,94052.42
2019-05-01T19:56:16.727Z,94054.06
2019-05-01T20:01:19.126Z,94047.56
2019-05-01T20:06:23.863Z,94041.97
2019-05-01T20:11:28.842Z,94044.37
2019-05-01T20:16:33.554Z,94046.17
2019-05-01T20:21:38.182Z,94044.22
2019-05-01T20:26:42.819Z,94046.80
2019-05-01T20:31:50.675Z,94049.00
2019-05-01T20:36:53.836Z,94051.45
2019-05-01T20:41:58.537Z,94047.92
2019-05-01T20:47:03.909Z,94047.78
2019-05-01T20:52:08.698Z,94047.01
2019-05-01T20:57:20.744Z,94044.31
2019-05-01T21:02:21.186Z,94052.67
2019-05-01T21:07:31.774Z,94045.26
2019-05-01T21:12:36.400Z,94044.22
2019-05-01T21:17:44.192Z,94047.90
2019-05-01T21:22:47.324Z,94041.02
2019-05-01T21:27:51.963Z,94043.53
2019-05-01T21:32:59.038Z,94043.51
2019-05-01T21:38:02.937Z,94040.66
2019-05-01T21:43:07.606Z,94050.03
2019-05-01T21:48:13.341Z,94050.27
2019-05-01T21:53:18.136Z,94054.95
2019-05-01T21:58:26.340Z,94055.51
2019-05-01T22:03:29.180Z,94062.50
2019-05-01T22:08:34.526Z,94058.07
2019-05-01T22:13:40.279Z,94062.99
2019-05-01T22:18:47.104Z,94069.66
2019-05-01T22:23:53.308Z,94068.69
2019-05-01T22:28:59.590Z,94065.16
2019-05-01T22:34:23.807Z,94072.41
2019-05-01T22:39:30.093Z,94067.43
2019-05-01T22:44:34.854Z,94068.00
2019-05-01T22:49:39.642Z,94062.02
2019-05-01T22:54:44.807Z,94063.39
2019-05-01T22:59:50.658Z,94060.86
2019-05-01T23:04:55.582Z,94065.75
2019-05-01T23:10:03.299Z,94062.30
2019-05-01T23:15:10.306Z,94059.80
2019-05-01T23:20:15.833Z,94059.08
2019-05-01T23:25:21.887Z,94048.90
2019-05-01T23:30:26.586Z,94043.91
2019-05-01T23:35:32.153Z,94036.33
2019-05-01T23:40:36.807Z,94043.98
2019-05-01T23:45:42.429Z,94037.95
2019-05-01T23:50:47.124Z,94031.94
2019-05-01T23:55:54.627Z,94028.55
